• Join FlightAware (Why Join?)
  • Login
  • US Flag 
02:46AM EDT


 

Airport Tracker/Info


-or-


 

Live Flight TrackerFlight Track Log ✈ EJA941 ✈ 22-Aug-2013 ✈ KIAD - KACY

Flight Track Log - Related Links

Times and Time Zones

All times are in EDT time to prevent confusion due to time zone crossing. See the EJA941 flight status page for this flight to view local times or setup timezone preferences in your user account.

Time Position Orientation Groundspeed Altitude Reporting Facility
EDT Latitude Longitude Course Direction KTS MPH feet Rate Location/Type
06:32AM 38.9667 -77.5167 117° Southeast 198 228 2,500  Level Potomac TRACON
06:33AM 39.0000 -77.5667 311° West 234 269 5,200 2,460 Climbing Potomac TRACON
06:34AM 39.0667 -77.5333 21° North 283 326 7,500 1,800 Climbing Potomac TRACON
06:35AM 39.1167 -77.4500 52° Northeast 299 344 8,900 720 Climbing Potomac TRACON
06:36AM 39.1667 -77.3667 52° Northeast 299 344 9,000  Climbing Potomac TRACON
06:37AM 39.2000 -77.2833 63° Northeast 286 329 9,000 840 Level Potomac TRACON
06:38AM 39.3103 -76.9758 117° Southeast  Level FlightAware Approximate
06:38AM 39.2500 -77.1833 57° Northeast 310 357 10,700  Level Potomac TRACON
06:39AM 39.3167 -77.0833 49° Northeast 375 432 11,900 1,140 Climbing Potomac TRACON
06:40AM 39.3167 -76.9500 90° East 387 445 13,000 540 Climbing Potomac TRACON
06:41AM 39.2667 -76.8000 113° Southeast 414 476 13,000  Level Potomac TRACON
06:42AM 39.2333 -76.6667 108° East 447 514 13,000  Level Potomac TRACON
06:43AM 39.1833 -76.5333 116° Southeast 391 450 13,000  Level Potomac TRACON
06:46AM 39.0950 -76.2494 112° Southeast 381 438 13,000 -60 Level Washington Center
06:47AM 39.0622 -76.1236 109° East 392 451 12,900 -60 Descending Washington Center
06:48AM 39.0439 -75.9819 99° East 398 458 12,900  Level Washington Center
06:49AM 39.0547 -75.8322 85° East 403 464 12,900  Level Washington Center
06:50AM 39.0614 -75.6878 87° East 409 471 12,900  Level Washington Center
06:51AM 39.0758 -75.5381 83° East 409 471 12,900  Level Washington Center
06:52AM 39.1236 -75.4044 65° Northeast 404 465 12,900  Level Washington Center
06:53AM 39.1714 -75.2650 66° East 404 465 12,900  Level Washington Center
06:54AM 39.2231 -75.1308 64° Northeast 415 478 12,900 -360 Level Washington Center
06:55AM 39.2786 -74.9992 61° Northeast 420 483 12,200 -1,080 Descending Washington Center
06:56AM 39.3239 -74.8939 61° Northeast 385 443 10,800 -2,220 Descending Washington Center
06:56AM 39.3486 -74.8347 62° Northeast 304 350 9,000 -3,120 Descending Washington Center
06:57AM 39.3733 -74.7969 50° Northeast 317 365 7,600 -2,760 Descending Washington Center
06:58AM 39.4506 -74.8014 357° North 237 273 4,900 -1,800 Descending Washington Center
06:59AM 39.5192 -74.7925 North 237 273 4,000 -1,140 Descending Washington Center
07:00AM 39.5167 -74.7200 93° East 163 188 2,700 -1,380 Descending Washington Center
07:01AM 39.4953 -74.6639 116° Southeast 143 165 1,300 -1,140 Descending Washington Center
07:02AM 39.4761 -74.6156 117° Southeast 143 165 500 -540 Descending Washington Center
07:03AM 39.4653 -74.5756 109° East 149 171 300 -240 Descending Washington Center